Time;durP1;ratioP1;P1;durP2;ratioP2;P2;SDS_P1;SDS_P2;PMS_P1;PMS_P2;Temp;Humidity;BMP_temperature;BMP_pressure;BME280_temperature;BME280_humidity;BME280_pressure;Samples;Min_cycle;Max_cycle;Signal;HPM_P1;HPM_P2
2022/12/25 00:00:13;;;;;;;5.72;2.63;;;0.60;99.90;;;;;;5004314;28;20057;-85
2022/12/25 00:02:40;;;;;;;8.20;2.80;;;0.60;99.90;;;;;;4991890;28;20497;-86
2022/12/25 00:05:09;;;;;;;7.05;3.15;;;0.60;99.90;;;;;;4986778;28;20446;-84
2022/12/25 00:07:36;;;;;;;5.32;2.70;;;0.60;99.90;;;;;;4990901;28;20568;-84
2022/12/25 00:10:05;;;;;;;6.32;3.00;;;0.60;99.90;;;;;;4990242;28;20088;-85
2022/12/25 00:12:33;;;;;;;6.38;3.25;;;0.60;99.90;;;;;;5006401;28;20044;-85
2022/12/25 00:15:03;;;;;;;7.72;3.60;;;0.60;99.90;;;;;;4985214;28;20054;-85
2022/12/25 00:17:31;;;;;;;5.00;2.22;;;0.60;99.90;;;;;;4990542;28;20141;-85
2022/12/25 00:19:59;;;;;;;5.88;3.20;;;0.60;99.90;;;;;;4989803;28;20167;-86
2022/12/25 00:22:26;;;;;;;4.30;3.08;;;0.60;99.90;;;;;;4991444;28;20042;-86
2022/12/25 00:24:54;;;;;;;4.57;2.72;;;0.60;99.90;;;;;;4983790;28;20058;-85
2022/12/25 00:27:22;;;;;;;8.05;3.33;;;0.50;99.90;;;;;;4983300;28;20082;-83
2022/12/25 00:29:49;;;;;;;7.25;2.95;;;0.50;99.90;;;;;;4988494;28;20561;-82
2022/12/25 00:32:18;;;;;;;5.72;2.90;;;0.50;99.90;;;;;;4989178;28;20510;-83
2022/12/25 00:34:48;;;;;;;6.57;2.70;;;0.50;99.90;;;;;;4987972;28;20081;-82
2022/12/25 00:37:15;;;;;;;4.35;3.00;;;0.50;99.90;;;;;;4988732;28;22034;-84
2022/12/25 00:39:43;;;;;;;4.55;2.58;;;0.50;99.90;;;;;;4991679;28;20063;-83
2022/12/25 00:42:20;;;;;;;8.00;2.53;;;0.50;99.90;;;;;;4989874;28;20085;-80
2022/12/25 00:44:48;;;;;;;4.43;2.38;;;0.50;99.90;;;;;;4991673;28;20058;-82
2022/12/25 00:47:18;;;;;;;5.95;2.10;;;0.50;99.90;;;;;;4989097;28;20046;-83
2022/12/25 00:49:46;;;;;;;5.47;2.35;;;0.50;99.90;;;;;;4992488;28;20140;-83
2022/12/25 00:52:14;;;;;;;4.78;2.53;;;0.50;99.90;;;;;;4987696;28;20674;-83
2022/12/25 00:54:41;;;;;;;2.63;1.90;;;0.40;99.90;;;;;;4991176;28;20042;-82
2022/12/25 00:57:11;;;;;;;2.90;2.10;;;0.40;99.90;;;;;;4991377;28;20050;-82
2022/12/25 00:59:41;;;;;;;;;;;0.40;99.90;;;;;;4990966;28;20066;-82
2022/12/25 01:04:56;;;;;;;7.60;2.08;;;0.40;99.90;;;;;;4985675;28;20149;-83
2022/12/25 01:07:26;;;;;;;5.03;1.92;;;0.40;99.90;;;;;;4982624;28;20062;-83
2022/12/25 01:12:41;;;;;;;2.95;1.65;;;0.40;99.90;;;;;;4987743;28;20046;-82
2022/12/25 01:15:12;;;;;;;3.70;1.70;;;0.40;99.90;;;;;;4994110;28;20050;-85
2022/12/25 01:17:40;;;;;;;4.60;1.70;;;0.40;99.90;;;;;;4991863;28;20208;-82
2022/12/25 01:20:12;;;;;;;3.63;1.95;;;0.40;99.90;;;;;;4983213;28;20050;-84
2022/12/25 01:22:39;;;;;;;4.32;2.00;;;0.40;99.90;;;;;;4985358;28;20519;-83
2022/12/25 01:25:08;;;;;;;6.85;2.47;;;0.40;99.90;;;;;;4987769;28;20109;-84
2022/12/25 01:27:36;;;;;;;5.25;2.60;;;0.40;99.90;;;;;;4973213;28;20051;-85
2022/12/25 01:30:04;;;;;;;20.30;2.67;;;0.40;99.90;;;;;;4987991;28;20499;-84
2022/12/25 01:32:32;;;;;;;5.25;2.95;;;0.40;99.90;;;;;;5003901;28;20043;-83
2022/12/25 01:34:59;;;;;;;5.57;2.47;;;0.40;99.90;;;;;;5005552;28;20073;-83
2022/12/25 01:37:28;;;;;;;6.22;2.38;;;0.40;99.90;;;;;;5004875;28;20437;-83
2022/12/25 01:39:55;;;;;;;5.63;2.33;;;0.40;99.90;;;;;;4983888;28;20057;-83
2022/12/25 01:42:24;;;;;;;5.43;2.15;;;0.40;99.90;;;;;;4987886;28;20058;-84
2022/12/25 01:45:41;;;;;;;4.95;2.33;;;0.30;99.90;;;;;;4988566;28;20137;-83
2022/12/25 01:48:17;;;;;;;8.23;2.40;;;0.20;99.90;;;;;;4979448;28;20478;-84
2022/12/25 01:50:50;;;;;;;5.72;2.63;;;0.10;99.90;;;;;;4988641;28;20088;-85
2022/12/25 01:53:19;;;;;;;6.32;3.00;;;0.00;99.90;;;;;;4990658;28;20050;-84
2022/12/25 01:55:50;;;;;;;5.22;2.22;;;-0.10;99.90;;;;;;4991147;28;20547;-84
2022/12/25 01:58:19;;;;;;;8.88;2.28;;;-0.20;99.90;;;;;;4997789;28;20453;-82
2022/12/25 02:00:46;;;;;;;4.38;2.28;;;-0.20;99.90;;;;;;4989347;28;20097;-83
2022/12/25 02:03:14;;;;;;;4.35;2.30;;;-0.20;99.90;;;;;;4988953;28;20054;-83
2022/12/25 02:05:42;;;;;;;5.00;1.77;;;-0.20;99.90;;;;;;4988458;28;20533;-83
2022/12/25 02:08:13;;;;;;;5.47;1.63;;;-0.10;99.90;;;;;;4987197;28;20054;-85
2022/12/25 02:10:43;;;;;;;5.47;2.15;;;0.00;99.90;;;;;;4989564;28;20078;-83
2022/12/25 02:13:13;;;;;;;3.50;1.98;;;0.10;99.90;;;;;;4989598;28;20054;-84
2022/12/25 02:16:07;;;;;;;8.90;1.80;;;0.20;99.90;;;;;;4993637;28;20062;-80
2022/12/25 02:18:43;;;;;;;3.58;2.25;;;0.20;99.90;;;;;;4971356;28;20060;-81
2022/12/25 02:21:38;;;;;;;4.90;2.30;;;0.20;99.90;;;;;;4990287;28;20060;-83
2022/12/25 02:24:43;;;;;;;5.70;1.85;;;0.20;99.90;;;;;;4993063;28;20050;-81
2022/12/25 02:27:29;;;;;;;9.77;2.13;;;0.20;99.90;;;;;;4993001;28;20054;-81
2022/12/25 02:30:05;;;;;;;8.13;2.90;;;0.20;99.90;;;;;;4994593;28;20059;-81
2022/12/25 02:32:40;;;;;;;4.10;2.30;;;0.10;99.90;;;;;;4993042;28;20481;-82
2022/12/25 02:35:14;;;;;;;10.10;2.65;;;0.20;99.90;;;;;;4986926;28;20046;-80
2022/12/25 02:37:47;;;;;;;5.10;2.40;;;0.20;99.90;;;;;;4990204;28;20089;-81
2022/12/25 02:40:19;;;;;;;4.18;2.53;;;0.10;99.90;;;;;;4992468;28;20054;-81
2022/12/25 03:08:35;;;;;;;6.00;2.25;;;0.20;99.90;;;;;;4992825;28;20073;-82
2022/12/25 03:13:54;;;;;;;4.93;2.25;;;0.10;99.90;;;;;;4985052;28;20062;-81
2022/12/25 03:27:21;;;;;;;5.65;2.08;;;0.00;99.90;;;;;;4974368;28;20436;-83
2022/12/25 03:32:43;;;;;;;7.65;1.95;;;0.00;99.90;;;;;;4994198;28;20050;-82
2022/12/25 03:35:22;;;;;;;13.00;3.50;;;0.10;99.90;;;;;;5006037;28;20132;-82
2022/12/25 04:36:59;;;;;;;14.48;4.13;;;-0.10;99.90;;;;;;4991526;28;20066;-77
2022/12/25 04:39:27;;;;;;;14.18;4.28;;;-0.20;99.90;;;;;;4989299;28;20415;-77
2022/12/25 04:41:57;;;;;;;10.48;3.30;;;-0.20;99.90;;;;;;4990514;28;20419;-77
2022/12/25 04:44:24;;;;;;;12.52;3.72;;;-0.20;99.90;;;;;;4971894;28;20534;-78
2022/12/25 04:46:52;;;;;;;10.18;3.33;;;-0.20;99.90;;;;;;4978528;28;20077;-78
2022/12/25 04:49:19;;;;;;;7.43;3.13;;;-0.20;99.90;;;;;;4988034;28;20518;-76
2022/12/25 04:51:47;;;;;;;6.00;2.67;;;-0.20;99.90;;;;;;4991022;28;20467;-77
2022/12/25 04:54:15;;;;;;;6.35;3.25;;;-0.20;99.90;;;;;;4980940;28;20142;-76
2022/12/25 04:56:42;;;;;;;5.07;2.42;;;-0.20;99.90;;;;;;4999350;28;20530;-76
2022/12/25 04:59:11;;;;;;;6.07;1.63;;;-0.20;99.90;;;;;;4990730;28;20081;-76
2022/12/25 05:01:39;;;;;;;5.75;2.15;;;-0.20;99.90;;;;;;4990310;28;20100;-77
2022/12/25 05:04:07;;;;;;;2.90;1.50;;;-0.30;99.90;;;;;;4989338;28;20054;-78
2022/12/25 05:06:35;;;;;;;6.10;1.38;;;-0.30;99.90;;;;;;4989758;28;20050;-77
2022/12/25 05:09:03;;;;;;;5.63;1.33;;;-0.40;99.90;;;;;;4988877;28;20054;-77
2022/12/25 05:11:31;;;;;;;5.28;2.15;;;-0.50;99.90;;;;;;4973162;28;20035;-76
2022/12/25 05:14:03;;;;;;;5.25;1.80;;;-0.50;99.90;;;;;;4987933;28;20085;-76
2022/12/25 05:16:32;;;;;;;7.15;1.98;;;-0.60;99.90;;;;;;5005922;28;20423;-78
2022/12/25 05:19:00;;;;;;;3.58;1.65;;;-0.70;99.90;;;;;;4990455;28;20057;-77
2022/12/25 05:21:28;;;;;;;3.72;1.75;;;-0.80;99.90;;;;;;4970949;28;20042;-77
2022/12/25 05:23:55;;;;;;;5.00;1.73;;;-0.80;99.90;;;;;;4987688;28;20061;-76
2022/12/25 05:26:25;;;;;;;4.30;1.55;;;-0.90;99.90;;;;;;4989701;28;20191;-77
2022/12/25 05:28:54;;;;;;;4.32;1.52;;;-0.90;99.90;;;;;;4989768;28;20050;-77
2022/12/25 05:31:22;;;;;;;3.97;1.80;;;-1.00;99.90;;;;;;4988588;28;20422;-77
2022/12/25 05:33:52;;;;;;;7.47;1.95;;;-1.00;99.90;;;;;;4989107;28;20047;-77
2022/12/25 05:36:20;;;;;;;5.13;1.60;;;-1.10;99.90;;;;;;4987872;28;20078;-78
2022/12/25 05:38:47;;;;;;;7.28;2.15;;;-1.10;99.90;;;;;;4989680;28;20723;-79
2022/12/25 05:41:15;;;;;;;8.38;2.78;;;-1.20;99.90;;;;;;4979755;28;20418;-77
2022/12/25 05:43:43;;;;;;;6.97;2.38;;;-1.10;99.90;;;;;;4988015;28;20085;-78
2022/12/25 05:46:11;;;;;;;7.80;2.63;;;-1.10;99.90;;;;;;4985610;28;20050;-78
2022/12/25 05:48:40;;;;;;;10.48;2.25;;;-1.10;99.90;;;;;;5001626;28;20050;-77
2022/12/25 05:51:12;;;;;;;3.63;1.67;;;-1.20;99.90;;;;;;4989056;28;20050;-78
2022/12/25 05:53:41;;;;;;;;;;;-1.20;99.90;;;;;;4989141;28;20560;-78
2022/12/25 05:56:09;;;;;;;3.10;1.90;;;-1.30;99.90;;;;;;4991039;28;19949;-78
2022/12/25 05:58:39;;;;;;;4.00;2.05;;;-1.30;99.90;;;;;;4993295;28;20046;-77
2022/12/25 06:01:13;;;;;;;8.65;3.08;;;-1.20;99.90;;;;;;4991793;28;20505;-78
2022/12/25 06:03:40;;;;;;;7.90;2.50;;;-1.20;99.90;;;;;;4995164;28;20054;-77
2022/12/25 06:06:10;;;;;;;5.53;2.90;;;-1.20;99.90;;;;;;4998866;28;20129;-80
2022/12/25 06:08:38;;;;;;;9.02;2.55;;;-1.10;99.90;;;;;;4985815;28;20072;-82
2022/12/25 06:11:07;;;;;;;5.10;2.17;;;-1.10;99.90;;;;;;4993695;28;20149;-82
2022/12/25 06:13:36;;;;;;;4.90;2.03;;;-1.00;99.90;;;;;;4994352;28;20050;-82
2022/12/25 06:16:05;;;;;;;4.47;1.75;;;-1.00;99.90;;;;;;4991291;28;20045;-81
2022/12/25 06:18:35;;;;;;;4.85;2.13;;;-1.00;99.90;;;;;;4993487;28;20047;-83
2022/12/25 06:21:09;;;;;;;4.13;1.90;;;-1.00;99.90;;;;;;4994009;28;20479;-85
2022/12/25 06:23:38;;;;;;;7.13;2.60;;;-1.00;99.90;;;;;;5010158;28;20057;-80
2022/12/25 06:26:07;;;;;;;8.57;2.13;;;-1.10;99.90;;;;;;4993519;28;20042;-85
2022/12/25 06:28:35;;;;;;;7.70;2.30;;;-1.10;99.90;;;;;;4997773;28;20061;-83
2022/12/25 06:31:11;;;;;;;5.50;1.90;;;-1.10;99.90;;;;;;5012506;28;20095;-81
2022/12/25 06:33:39;;;;;;;5.50;2.45;;;-1.10;99.90;;;;;;5029719;28;20046;-78
2022/12/25 06:36:11;;;;;;;7.55;3.70;;;-1.20;99.90;;;;;;4996823;28;20056;-80
2022/12/25 06:38:39;;;;;;;17.07;6.60;;;-1.20;99.90;;;;;;4997064;28;20477;-75
2022/12/25 06:41:11;;;;;;;16.80;7.32;;;-1.30;99.90;;;;;;4991215;28;20466;-79
2022/12/25 06:43:40;;;;;;;18.85;6.93;;;-1.30;99.90;;;;;;4992187;28;20053;-75
2022/12/25 06:46:11;;;;;;;13.40;4.60;;;-1.30;99.90;;;;;;4991226;28;20048;-77
2022/12/25 06:48:46;;;;;;;9.75;4.65;;;-1.30;99.90;;;;;;4992048;28;20065;-77
2022/12/25 06:51:16;;;;;;;18.80;7.53;;;-1.30;99.90;;;;;;4991744;28;20136;-76
2022/12/25 06:53:56;;;;;;;19.88;8.15;;;-1.30;99.90;;;;;;4991094;28;20050;-77
2022/12/25 06:56:26;;;;;;;30.98;9.15;;;-1.30;99.90;;;;;;4988666;28;20049;-76
2022/12/25 06:58:57;;;;;;;21.25;8.20;;;-1.30;99.90;;;;;;4994121;28;20138;-76
2022/12/25 07:01:27;;;;;;;19.50;8.18;;;-1.30;99.90;;;;;;4994076;28;20061;-75
2022/12/25 07:04:01;;;;;;;16.67;7.38;;;-1.40;99.90;;;;;;4986987;28;20081;-77
2022/12/25 07:06:30;;;;;;;16.15;6.82;;;-1.30;99.90;;;;;;4990971;28;20586;-76
2022/12/25 07:08:58;;;;;;;12.23;6.05;;;-1.40;99.90;;;;;;4992854;28;20053;-75
2022/12/25 07:11:26;;;;;;;15.38;5.55;;;-1.40;99.90;;;;;;4989912;28;20046;-75
2022/12/25 07:13:54;;;;;;;14.02;5.07;;;-1.40;99.90;;;;;;4990900;28;20053;-75
2022/12/25 07:16:23;;;;;;;11.32;4.68;;;-1.50;99.90;;;;;;4994711;28;20042;-76
2022/12/25 07:18:50;;;;;;;11.43;5.10;;;-1.50;99.90;;;;;;4992578;28;20150;-73
2022/12/25 07:21:21;;;;;;;21.05;10.00;;;-1.50;99.90;;;;;;4988810;28;20042;-75
2022/12/25 07:23:54;;;;;;;17.75;8.27;;;-1.50;99.90;;;;;;4997671;28;20050;-77
2022/12/25 07:26:21;;;;;;;19.60;8.13;;;-1.50;99.90;;;;;;4987343;28;20053;-76
2022/12/25 07:28:49;;;;;;;26.13;9.80;;;-1.50;99.90;;;;;;4994152;28;20149;-74
2022/12/25 07:31:18;;;;;;;24.73;8.13;;;-1.60;99.90;;;;;;4990650;28;20053;-75
2022/12/25 07:33:45;;;;;;;22.30;8.75;;;-1.60;99.90;;;;;;4987239;28;20050;-74
2022/12/25 07:36:14;;;;;;;14.63;6.93;;;-1.50;99.90;;;;;;4990347;28;20049;-75
2022/12/25 07:38:42;;;;;;;14.73;7.60;;;-1.50;99.90;;;;;;5000738;28;20046;-75
2022/12/25 07:41:12;;;;;;;64.30;26.65;;;-1.50;99.90;;;;;;4989834;28;20146;-75
2022/12/25 07:43:39;;;;;;;16.92;7.25;;;-1.40;99.90;;;;;;4990324;28;20055;-75
2022/12/25 07:46:07;;;;;;;26.42;9.68;;;-1.40;99.90;;;;;;4991849;28;20049;-76
2022/12/25 07:48:37;;;;;;;21.20;8.30;;;-1.40;99.90;;;;;;4995776;28;20081;-74
2022/12/25 07:51:11;;;;;;;22.15;9.60;;;-1.30;99.90;;;;;;4981679;28;20050;-74
2022/12/25 07:53:42;;;;;;;22.33;9.30;;;-1.40;99.90;;;;;;4997508;28;20046;-74
2022/12/25 07:56:15;;;;;;;24.70;10.18;;;-1.40;99.90;;;;;;5011992;28;20046;-75
2022/12/25 07:58:43;;;;;;;31.00;12.43;;;-1.40;99.90;;;;;;4994750;28;20491;-74
2022/12/25 08:01:15;;;;;;;33.40;12.13;;;-1.40;99.90;;;;;;4992370;28;20046;-75
2022/12/25 08:03:42;;;;;;;38.47;14.57;;;-1.40;99.90;;;;;;5019317;28;20089;-76
2022/12/25 08:06:11;;;;;;;32.33;11.43;;;-1.40;99.90;;;;;;5004347;28;20084;-76
2022/12/25 08:08:40;;;;;;;33.75;14.75;;;-1.50;99.90;;;;;;4992854;28;20489;-74
2022/12/25 08:11:11;;;;;;;36.92;12.25;;;-1.50;99.90;;;;;;4992500;28;20050;-76
2022/12/25 08:13:39;;;;;;;36.22;10.80;;;-1.40;99.90;;;;;;4983361;28;20747;-75
2022/12/25 08:16:10;;;;;;;27.88;10.07;;;-1.40;99.90;;;;;;5006737;28;20387;-73
2022/12/25 08:18:39;;;;;;;23.52;9.27;;;-1.30;99.90;;;;;;4988892;28;20038;-74
2022/12/25 08:21:09;;;;;;;27.88;10.82;;;-1.10;99.90;;;;;;5005865;28;20073;-75
2022/12/25 08:23:39;;;;;;;30.77;10.18;;;-1.10;99.90;;;;;;5000157;28;20096;-74
2022/12/25 08:26:08;;;;;;;26.40;9.85;;;-1.00;99.90;;;;;;5009499;28;20056;-75
2022/12/25 08:28:39;;;;;;;29.10;10.93;;;-1.00;99.90;;;;;;4992777;28;20101;-75
2022/12/25 08:31:15;;;;;;;29.80;11.75;;;-1.00;99.90;;;;;;5008905;28;20157;-75
2022/12/25 08:33:44;;;;;;;30.67;12.57;;;-1.00;99.90;;;;;;4997104;28;20149;-74
2022/12/25 08:36:13;;;;;;;31.92;14.00;;;-1.00;99.90;;;;;;4985436;28;20042;-74
2022/12/25 08:38:41;;;;;;;24.42;9.10;;;-1.00;99.90;;;;;;4984371;28;20451;-75
2022/12/25 08:41:11;;;;;;;19.08;8.80;;;-1.00;99.90;;;;;;4986736;28;20089;-74
2022/12/25 08:43:41;;;;;;;22.70;7.45;;;-1.00;99.90;;;;;;4984347;28;20046;-74
2022/12/25 08:46:09;;;;;;;16.08;6.60;;;-1.00;99.90;;;;;;4994301;28;20050;-76
2022/12/25 08:48:37;;;;;;;19.35;7.25;;;-1.00;99.90;;;;;;4986766;28;20128;-75
2022/12/25 08:51:08;;;;;;;16.75;6.88;;;-1.00;99.90;;;;;;4986626;28;20081;-75
2022/12/25 08:53:36;;;;;;;26.08;9.18;;;-1.10;99.90;;;;;;4985895;28;20050;-75
2022/12/25 08:56:05;;;;;;;32.10;12.05;;;-1.00;99.90;;;;;;4978820;28;20038;-74
2022/12/25 08:58:34;;;;;;;24.48;9.68;;;-1.00;99.90;;;;;;4976006;28;20050;-79
2022/12/25 09:01:03;;;;;;;29.30;12.15;;;-1.00;99.90;;;;;;4985459;28;20050;-75
2022/12/25 09:03:32;;;;;;;25.25;11.05;;;-1.00;99.90;;;;;;4972980;28;20594;-75
2022/12/25 09:06:04;;;;;;;22.33;9.55;;;-1.10;99.90;;;;;;4972234;28;20045;-76
2022/12/25 09:08:32;;;;;;;21.30;7.40;;;-1.00;99.90;;;;;;4973050;28;20046;-75
2022/12/25 09:11:03;;;;;;;13.63;6.15;;;-1.00;99.90;;;;;;4967452;28;20073;-77
2022/12/25 09:13:31;;;;;;;23.70;9.10;;;-0.90;99.90;;;;;;4978067;28;20210;-78
2022/12/25 09:15:59;;;;;;;15.90;6.63;;;-0.90;99.90;;;;;;4971651;28;20038;-76
2022/12/25 09:18:28;;;;;;;14.13;6.57;;;-0.80;99.90;;;;;;4979715;28;20054;-76
2022/12/25 09:21:00;;;;;;;16.40;6.82;;;-0.70;99.90;;;;;;4974909;28;20078;-75
2022/12/25 09:23:28;;;;;;;18.10;7.13;;;-0.60;99.90;;;;;;4980899;28;20057;-77
2022/12/25 09:25:58;;;;;;;16.83;7.65;;;-0.60;99.90;;;;;;4984323;28;20077;-75
2022/12/25 09:28:26;;;;;;;12.25;6.43;;;-0.70;99.90;;;;;;4983979;28;20046;-75
2022/12/25 09:30:54;;;;;;;23.70;7.15;;;-0.80;99.90;;;;;;4975679;28;20558;-76
2022/12/25 09:33:22;;;;;;;13.85;6.95;;;-0.80;99.90;;;;;;4974293;28;20046;-75
2022/12/25 09:36:00;;;;;;;20.33;7.78;;;-0.80;99.90;;;;;;4978833;28;20085;-76
2022/12/25 09:38:28;;;;;;;16.40;8.00;;;-0.70;99.90;;;;;;4982853;28;20038;-74
2022/12/25 09:41:02;;;;;;;18.35;8.55;;;-0.70;99.90;;;;;;4974647;28;20097;-77
2022/12/25 09:43:40;;;;;;;21.83;9.02;;;-0.60;99.90;;;;;;4989053;28;20073;-78
2022/12/25 09:46:14;;;;;;;19.90;9.02;;;-0.70;99.90;;;;;;4988461;28;20042;-76
2022/12/25 09:48:55;;;;;;;27.05;10.07;;;-0.60;99.90;;;;;;4988527;28;20050;-74
2022/12/25 09:51:25;;;;;;;20.80;9.60;;;-0.60;99.90;;;;;;4982024;28;20154;-76
2022/12/25 09:54:02;;;;;;;22.23;7.63;;;-0.50;99.90;;;;;;4992277;28;20073;-78
2022/12/25 09:56:29;;;;;;;19.67;8.82;;;-0.50;99.90;;;;;;4975844;28;20070;-75
2022/12/25 09:58:57;;;;;;;25.48;9.63;;;-0.50;99.90;;;;;;4988230;28;20454;-76
2022/12/25 10:01:34;;;;;;;19.33;8.68;;;-0.40;99.90;;;;;;4980708;28;20058;-76
2022/12/25 10:04:19;;;;;;;18.92;8.80;;;-0.30;99.90;;;;;;4986349;28;20495;-74
2022/12/25 10:07:04;;;;;;;18.90;9.38;;;-0.10;99.90;;;;;;4986329;28;20054;-74
2022/12/25 10:09:52;;;;;;;22.73;10.18;;;0.10;99.90;;;;;;4983276;28;20054;-74
2022/12/25 10:12:36;;;;;;;30.42;11.63;;;0.20;99.90;;;;;;4979191;28;20193;-74
2022/12/25 10:15:26;;;;;;;20.67;8.30;;;0.40;99.90;;;;;;4982645;28;20054;-75
2022/12/25 10:18:17;;;;;;;17.67;7.28;;;0.60;99.90;;;;;;4985911;28;20605;-74
2022/12/25 10:20:51;;;;;;;12.32;5.78;;;0.80;99.90;;;;;;4981498;28;20100;-74
2022/12/25 10:23:25;;;;;;;22.65;9.07;;;0.90;99.90;;;;;;4984411;28;20534;-74
2022/12/25 10:25:54;;;;;;;12.93;7.03;;;0.90;99.90;;;;;;4978360;28;20132;-74
2022/12/25 10:28:28;;;;;;;18.08;8.15;;;0.90;99.90;;;;;;4976410;28;20084;-76
2022/12/25 10:30:59;;;;;;;17.42;7.72;;;0.80;99.90;;;;;;4986744;28;20046;-75
2022/12/25 10:33:28;;;;;;;19.58;8.48;;;0.80;99.90;;;;;;4987060;28;20043;-74
2022/12/25 10:35:56;;;;;;;15.23;6.32;;;0.70;99.90;;;;;;4986251;28;20089;-75
2022/12/25 10:38:25;;;;;;;15.00;7.25;;;0.60;99.90;;;;;;4974615;28;20544;-77
2022/12/25 10:41:12;;;;;;;17.42;7.85;;;0.50;99.90;;;;;;4988323;28;20047;-78
2022/12/25 10:43:46;;;;;;;13.55;7.80;;;0.40;99.90;;;;;;4986571;28;21056;-77
2022/12/25 10:46:16;;;;;;;16.10;7.47;;;0.30;99.90;;;;;;4984416;28;20050;-77
2022/12/25 10:48:50;;;;;;;22.45;9.13;;;0.30;99.90;;;;;;4985422;28;20465;-76
2022/12/25 10:51:32;;;;;;;16.33;7.45;;;0.50;99.90;;;;;;4972556;28;20061;-74
2022/12/25 10:54:20;;;;;;;16.70;7.95;;;0.60;99.90;;;;;;4980459;28;20459;-74
2022/12/25 10:56:57;;;;;;;11.60;6.28;;;0.60;99.90;;;;;;4980694;28;20149;-75
2022/12/25 10:59:27;;;;;;;15.35;6.22;;;0.60;99.90;;;;;;4987359;28;20469;-74
2022/12/25 11:01:56;;;;;;;14.25;6.07;;;0.60;99.90;;;;;;4984700;28;20062;-75
2022/12/25 11:04:27;;;;;;;22.90;10.75;;;0.60;99.90;;;;;;4978381;28;20535;-73
2022/12/25 11:07:04;;;;;;;27.05;11.57;;;0.50;99.90;;;;;;4989568;28;20396;-76
2022/12/25 11:09:34;;;;;;;39.03;14.18;;;0.40;99.90;;;;;;4978236;28;20047;-75
2022/12/25 11:12:02;;;;;;;40.97;15.60;;;0.30;99.90;;;;;;4993964;28;20074;-73
2022/12/25 11:14:30;;;;;;;37.38;13.93;;;0.30;99.90;;;;;;4973094;28;20051;-73
2022/12/25 11:17:08;;;;;;;36.17;14.45;;;0.40;99.90;;;;;;4975343;28;20076;-76
2022/12/25 11:19:36;;;;;;;29.70;12.73;;;0.50;99.90;;;;;;4986039;28;20463;-75
2022/12/25 11:22:05;;;;;;;23.33;10.48;;;0.50;99.90;;;;;;4983919;28;20462;-73
2022/12/25 11:24:34;;;;;;;13.50;6.75;;;0.50;99.90;;;;;;4985619;28;20085;-74
2022/12/25 11:27:06;;;;;;;23.23;9.57;;;0.60;99.90;;;;;;4985736;28;20051;-74
2022/12/25 11:29:41;;;;;;;20.17;8.05;;;0.60;99.90;;;;;;4985515;28;20042;-75
2022/12/25 11:32:17;;;;;;;15.45;7.40;;;0.60;99.90;;;;;;4987779;28;20497;-73
2022/12/25 11:34:47;;;;;;;20.08;7.47;;;0.70;99.90;;;;;;4999277;28;20046;-76
2022/12/25 11:37:20;;;;;;;17.45;7.40;;;0.70;99.90;;;;;;4980935;28;20516;-72
2022/12/25 11:39:49;;;;;;;27.05;11.35;;;0.70;99.90;;;;;;4980280;28;20530;-75
2022/12/25 11:42:22;;;;;;;22.85;10.27;;;0.70;99.90;;;;;;4971675;28;20231;-73
2022/12/25 11:44:56;;;;;;;17.33;8.02;;;0.70;99.90;;;;;;4986316;28;20509;-73
2022/12/25 11:47:30;;;;;;;24.85;8.63;;;0.80;99.90;;;;;;4985575;28;20172;-73
2022/12/25 11:50:03;;;;;;;15.60;6.68;;;0.80;99.90;;;;;;4985088;28;22100;-72
2022/12/25 11:52:35;;;;;;;14.60;5.63;;;0.80;99.90;;;;;;4980717;28;20423;-78
2022/12/25 11:55:15;;;;;;;10.90;5.27;;;0.70;99.90;;;;;;4974291;28;20073;-78
2022/12/25 11:57:47;;;;;;;10.90;5.78;;;0.80;99.90;;;;;;4985960;28;20042;-76
2022/12/25 12:00:16;;;;;;;14.18;6.13;;;0.80;99.90;;;;;;4983004;28;20417;-77
2022/12/25 12:02:50;;;;;;;12.73;5.45;;;0.80;99.90;;;;;;4980165;28;20515;-77
2022/12/25 12:05:22;;;;;;;15.60;8.45;;;0.80;99.90;;;;;;4983065;28;20038;-74
2022/12/25 12:08:02;;;;;;;16.80;6.03;;;0.70;99.90;;;;;;4978835;28;20050;-76
2022/12/25 12:10:43;;;;;;;13.90;7.05;;;0.60;99.90;;;;;;4972909;28;20059;-76
2022/12/25 12:13:26;;;;;;;14.35;6.82;;;0.60;99.90;;;;;;4983676;28;20093;-80
2022/12/25 12:15:55;;;;;;;15.20;6.47;;;0.60;99.90;;;;;;4982797;28;20046;-76
2022/12/25 12:18:30;;;;;;;21.40;8.55;;;0.50;99.90;;;;;;4986536;28;20288;-80
2022/12/25 12:21:01;;;;;;;19.63;8.07;;;0.50;99.90;;;;;;4976200;28;20164;-80
2022/12/25 12:23:31;;;;;;;14.95;6.93;;;0.40;99.90;;;;;;4980529;28;20046;-78
2022/12/25 12:26:01;;;;;;;14.88;6.28;;;0.40;99.90;;;;;;4984563;28;20162;-80
2022/12/25 12:28:37;;;;;;;10.10;5.03;;;0.50;99.90;;;;;;4982357;28;20423;-78
2022/12/25 12:31:07;;;;;;;11.55;5.85;;;0.60;99.90;;;;;;4984670;28;20058;-78
2022/12/25 12:33:41;;;;;;;25.02;7.82;;;0.60;99.90;;;;;;4982025;28;21022;-77
2022/12/25 12:36:13;;;;;;;22.70;7.80;;;0.50;99.90;;;;;;4977269;28;20050;-78
2022/12/25 12:38:44;;;;;;;24.38;8.77;;;0.50;99.90;;;;;;4973206;28;20045;-80
2022/12/25 12:41:16;;;;;;;19.27;7.75;;;0.60;99.90;;;;;;4982435;28;20072;-79
2022/12/25 12:43:52;;;;;;;28.05;8.23;;;0.50;99.90;;;;;;4975023;28;20055;-75
2022/12/25 12:46:25;;;;;;;23.02;8.10;;;0.50;99.90;;;;;;4980227;28;20058;-76
2022/12/25 12:48:55;;;;;;;18.88;7.30;;;0.40;99.90;;;;;;4985499;28;20137;-76
2022/12/25 12:51:33;;;;;;;16.25;6.85;;;0.30;99.90;;;;;;4979267;28;20054;-76
2022/12/25 12:54:19;;;;;;;21.85;8.35;;;0.30;99.90;;;;;;4984095;28;20054;-75
2022/12/25 12:57:00;;;;;;;17.17;7.60;;;0.30;99.90;;;;;;4984841;28;20124;-75
2022/12/25 12:59:38;;;;;;;32.70;10.48;;;0.40;99.90;;;;;;4988076;28;20050;-78
2022/12/25 13:02:30;;;;;;;27.98;10.88;;;0.40;99.90;;;;;;4982996;28;20149;-78
2022/12/25 13:05:04;;;;;;;28.88;10.98;;;0.40;99.90;;;;;;4983718;28;20047;-76
2022/12/25 13:07:48;;;;;;;28.30;11.15;;;0.40;99.90;;;;;;4977373;28;20475;-77
2022/12/25 13:10:26;;;;;;;21.83;9.13;;;0.40;99.90;;;;;;4972002;28;20050;-77
2022/12/25 13:13:03;;;;;;;31.85;11.52;;;0.40;99.90;;;;;;4981154;28;20150;-76
2022/12/25 13:15:33;;;;;;;28.63;10.38;;;0.40;99.90;;;;;;4976809;28;20047;-74
2022/12/25 13:18:06;;;;;;;16.95;6.03;;;0.30;99.90;;;;;;4973480;28;20050;-73
2022/12/25 13:20:41;;;;;;;24.20;7.88;;;0.20;99.90;;;;;;4977162;28;20081;-75
2022/12/25 13:23:26;;;;;;;26.00;10.77;;;0.20;99.90;;;;;;4978065;28;20046;-77
2022/12/25 13:25:55;;;;;;;22.38;9.35;;;0.20;99.90;;;;;;4968368;28;20170;-75
2022/12/25 13:28:31;;;;;;;24.48;10.15;;;0.10;99.90;;;;;;4974211;28;20050;-77
2022/12/25 13:31:10;;;;;;;21.58;7.63;;;0.10;99.90;;;;;;4976438;28;20089;-76
2022/12/25 13:33:38;;;;;;;11.60;6.07;;;0.00;99.90;;;;;;4970288;28;20078;-76
2022/12/25 13:36:11;;;;;;;14.93;6.00;;;-0.10;99.90;;;;;;4973343;28;20120;-75
2022/12/25 13:38:44;;;;;;;15.98;5.93;;;-0.20;99.90;;;;;;4971412;28;20050;-74
2022/12/25 13:44:02;;;;;;;9.00;5.20;;;-0.40;99.90;;;;;;4969970;28;20070;-75
2022/12/25 13:46:30;;;;;;;11.02;5.40;;;-0.50;99.90;;;;;;4974112;28;20038;-75
2022/12/25 13:49:00;;;;;;;17.65;8.20;;;-0.60;99.90;;;;;;4987173;28;20139;-76
2022/12/25 13:51:28;;;;;;;13.80;6.22;;;-0.70;99.90;;;;;;4970014;28;20610;-76
2022/12/25 13:54:06;;;;;;;27.42;10.02;;;-0.80;99.90;;;;;;4972911;28;20058;-78
2022/12/25 13:56:35;;;;;;;16.30;6.72;;;-0.90;99.90;;;;;;4969457;28;20054;-75
2022/12/25 13:59:04;;;;;;;14.57;6.72;;;-0.90;99.90;;;;;;4974096;28;20149;-72
2022/12/25 14:01:32;;;;;;;17.33;6.93;;;-1.00;99.90;;;;;;4972628;28;20054;-72
2022/12/25 14:04:00;;;;;;;19.58;7.45;;;-1.00;99.90;;;;;;4974065;28;20198;-71
2022/12/25 14:06:31;;;;;;;17.23;6.60;;;-1.10;99.90;;;;;;4975505;28;20046;-74
2022/12/25 14:09:00;;;;;;;13.02;6.85;;;-1.10;99.90;;;;;;4971320;28;20347;-75
2022/12/25 14:11:29;;;;;;;15.80;8.60;;;-1.10;99.90;;;;;;4978971;28;20331;-74
2022/12/25 14:14:01;;;;;;;16.75;7.90;;;-1.20;99.90;;;;;;4981050;28;21080;-72
2022/12/25 14:16:31;;;;;;;14.48;7.63;;;-1.20;99.90;;;;;;4971360;28;20085;-72
2022/12/25 14:19:03;;;;;;;13.95;7.43;;;-1.20;99.90;;;;;;4968967;28;20097;-73
2022/12/25 14:21:34;;;;;;;17.92;8.27;;;-1.20;99.90;;;;;;4974035;28;20054;-73
2022/12/25 14:24:02;;;;;;;14.50;6.45;;;-1.20;99.90;;;;;;4975132;28;20054;-74
2022/12/25 14:26:33;;;;;;;16.27;8.18;;;-1.20;99.90;;;;;;4977450;28;20463;-76
2022/12/25 14:29:08;;;;;;;19.05;7.70;;;-1.20;99.90;;;;;;4979255;28;21508;-75
2022/12/25 14:31:39;;;;;;;14.15;6.50;;;-1.30;99.90;;;;;;4978764;28;20073;-76
2022/12/25 14:34:15;;;;;;;11.27;7.10;;;-1.40;99.90;;;;;;4973963;28;20085;-76
2022/12/25 14:36:45;;;;;;;11.13;6.55;;;-1.40;99.90;;;;;;4976084;28;20058;-78
2022/12/25 14:39:30;;;;;;;10.90;6.72;;;-1.40;99.90;;;;;;4973538;28;20116;-75
2022/12/25 14:41:58;;;;;;;12.27;6.25;;;-1.50;99.90;;;;;;4974627;28;20138;-77
2022/12/25 14:44:33;;;;;;;15.60;8.30;;;-1.50;99.90;;;;;;4973804;28;20047;-76
2022/12/25 14:47:15;;;;;;;21.63;9.30;;;-1.50;99.90;;;;;;4977514;28;20526;-77
2022/12/25 14:49:43;;;;;;;28.03;10.30;;;-1.60;99.90;;;;;;4972905;28;20801;-77
2022/12/25 14:52:21;;;;;;;29.98;10.68;;;-1.60;99.90;;;;;;4974711;28;20074;-77
2022/12/25 14:54:51;;;;;;;38.10;13.93;;;-1.50;99.90;;;;;;4973492;28;20108;-75